createdAt,value
2022-10-08T00:03:17.197Z,3.75
2022-10-08T00:08:20.121Z,4.35
2022-10-08T00:13:23.342Z,3.78
2022-10-08T00:18:30.119Z,3.75
2022-10-08T00:23:34.245Z,3.35
2022-10-08T00:28:38.750Z,3.78
2022-10-08T00:33:43.205Z,3.50
2022-10-08T00:38:45.849Z,3.75
2022-10-08T00:43:50.745Z,3.70
2022-10-08T00:48:56.847Z,4.28
2022-10-08T00:53:59.957Z,4.10
2022-10-08T00:59:03.485Z,4.18
2022-10-08T01:04:08.131Z,3.78
2022-10-08T01:09:18.861Z,3.85
2022-10-08T01:14:32.409Z,4.45
2022-10-08T01:20:02.201Z,3.30
2022-10-08T01:25:31.747Z,3.85
2022-10-08T01:30:36.777Z,3.83
2022-10-08T01:35:44.465Z,3.58
2022-10-08T01:40:48.600Z,3.92
2022-10-08T01:45:57.005Z,3.08
2022-10-08T01:51:04.522Z,4.20
2022-10-08T01:56:10.529Z,3.50
2022-10-08T02:01:16.492Z,3.25
2022-10-08T02:06:20.228Z,3.83
2022-10-08T02:11:23.002Z,3.50
2022-10-08T02:16:29.738Z,3.47
2022-10-08T02:21:32.702Z,3.65
2022-10-08T02:26:40.410Z,3.30
2022-10-08T02:31:47.597Z,3.33
2022-10-08T02:36:55.821Z,3.42
2022-10-08T02:42:01.362Z,3.55
2022-10-08T02:47:08.734Z,3.53
2022-10-08T02:52:11.679Z,4.80
2022-10-08T02:57:17.291Z,3.90
2022-10-08T03:02:27.748Z,3.75
2022-10-08T03:07:31.738Z,3.60
2022-10-08T03:12:35.448Z,3.90
2022-10-08T03:17:42.927Z,3.97
2022-10-08T03:22:45.903Z,3.03
2022-10-08T03:27:51.396Z,3.42
2022-10-08T03:32:55.435Z,3.40
2022-10-08T03:37:58.070Z,3.55
2022-10-08T03:43:00.678Z,3.10
2022-10-08T03:48:04.893Z,2.85
2022-10-08T03:53:07.546Z,2.97
2022-10-08T03:58:10.381Z,3.22
2022-10-08T04:03:14.346Z,3.03
2022-10-08T04:08:17.242Z,3.78
2022-10-08T04:13:20.268Z,2.97
2022-10-08T04:18:24.172Z,3.35
2022-10-08T04:23:30.269Z,2.85
2022-10-08T04:28:38.192Z,3.40
2022-10-08T04:33:42.614Z,3.72
2022-10-08T04:38:45.808Z,3.38
2022-10-08T04:43:48.420Z,4.50
2022-10-08T04:48:53.889Z,3.50
2022-10-08T04:53:57.837Z,4.60
2022-10-08T04:59:00.701Z,4.40
2022-10-08T05:04:04.703Z,3.80
2022-10-08T05:09:07.280Z,4.53
2022-10-08T05:14:10.007Z,3.78
2022-10-08T05:19:14.055Z,4.22
2022-10-08T05:24:16.762Z,4.25
2022-10-08T05:29:19.959Z,3.83
2022-10-08T05:34:24.004Z,4.15
2022-10-08T05:39:27.666Z,3.97
2022-10-08T05:44:32.824Z,4.20
2022-10-08T05:49:38.825Z,5.30
2022-10-08T05:54:41.473Z,3.55
2022-10-08T05:59:44.235Z,3.40
2022-10-08T06:04:49.583Z,3.95
2022-10-08T06:09:52.645Z,3.13
2022-10-08T06:14:55.538Z,2.67
2022-10-08T06:19:59.469Z,3.28
2022-10-08T06:25:02.149Z,2.83
2022-10-08T06:30:05.589Z,3.28
2022-10-08T06:35:10.233Z,3.30
2022-10-08T06:40:12.842Z,3.10
2022-10-08T06:45:15.591Z,3.28
2022-10-08T06:50:19.555Z,2.55
2022-10-08T06:55:22.330Z,2.80
2022-10-08T07:00:24.966Z,2.55
2022-10-08T07:05:28.903Z,2.45
2022-10-08T07:10:33.679Z,2.92
2022-10-08T07:15:36.488Z,2.22
2022-10-08T07:20:40.579Z,2.72
2022-10-08T07:25:43.404Z,2.95
2022-10-08T07:30:46.020Z,2.78
2022-10-08T07:35:50.105Z,2.33
2022-10-08T07:40:54.757Z,2.00
2022-10-08T07:45:57.434Z,2.50
2022-10-08T07:51:09.078Z,2.03
2022-10-08T07:56:13.327Z,2.30
2022-10-08T08:01:20.299Z,1.80
2022-10-08T08:06:25.192Z,1.90
2022-10-08T08:11:27.908Z,1.80
2022-10-08T08:16:30.799Z,1.88
2022-10-08T08:21:36.497Z,1.70
2022-10-08T08:26:40.642Z,1.60
2022-10-08T08:31:45.107Z,1.45
2022-10-08T08:36:51.057Z,1.80
2022-10-08T08:42:01.287Z,1.50
2022-10-08T08:47:07.606Z,1.80
2022-10-08T08:52:14.626Z,1.35
2022-10-08T08:57:27.413Z,1.40
2022-10-08T09:02:33.230Z,1.60
2022-10-08T09:07:42.970Z,1.65
2022-10-08T09:12:45.897Z,1.35
2022-10-08T09:17:52.670Z,1.70
2022-10-08T09:22:57.206Z,1.40
2022-10-08T09:28:04.074Z,1.33
2022-10-08T09:33:26.502Z,1.20
2022-10-08T09:38:34.231Z,1.50
2022-10-08T09:43:37.069Z,1.35
2022-10-08T09:48:41.651Z,1.10
2022-10-08T09:53:48.270Z,1.50
2022-10-08T09:58:52.772Z,1.23
2022-10-08T10:03:57.363Z,1.10
2022-10-08T10:09:07.458Z,1.20
2022-10-08T10:14:21.530Z,1.00
2022-10-08T10:19:27.128Z,1.15
2022-10-08T10:24:39.799Z,1.50
2022-10-08T10:29:50.153Z,1.15
2022-10-08T10:34:59.866Z,0.95
2022-10-08T10:40:15.476Z,0.80
2022-10-08T10:45:21.806Z,0.75
2022-10-08T10:50:28.993Z,0.77
2022-10-08T10:55:38.317Z,0.98
2022-10-08T11:00:46.224Z,1.30
2022-10-08T11:05:52.820Z,1.15
2022-10-08T11:11:06.242Z,1.30
2022-10-08T11:16:19.554Z,1.60
2022-10-08T11:21:34.758Z,2.28
2022-10-08T11:26:42.078Z,1.55
2022-10-08T11:31:46.546Z,1.83
2022-10-08T11:36:55.948Z,1.02
2022-10-08T11:42:06.179Z,1.20
2022-10-08T11:47:36.273Z,1.42
2022-10-08T11:52:38.915Z,1.48
2022-10-08T11:58:06.709Z,1.30
2022-10-08T12:03:07.342Z,1.58
2022-10-08T12:08:10.150Z,1.23
2022-10-08T12:13:32.156Z,0.60
2022-10-08T12:18:52.654Z,0.60
2022-10-08T12:23:55.401Z,1.55
2022-10-08T12:28:59.500Z,0.63
2022-10-08T12:34:04.735Z,3.15
2022-10-08T12:39:12.732Z,2.42
2022-10-08T12:44:27.083Z,1.45
2022-10-08T12:49:34.591Z,0.70
2022-10-08T12:54:38.603Z,0.80
2022-10-08T12:59:42.924Z,1.23
2022-10-08T13:04:47.357Z,0.55
2022-10-08T13:09:55.693Z,0.65
2022-10-08T13:15:05.750Z,0.60
2022-10-08T13:20:15.395Z,0.60
2022-10-08T13:25:36.164Z,0.90
2022-10-08T13:30:40.512Z,4.53
2022-10-08T13:35:43.939Z,3.50
2022-10-08T13:40:50.654Z,0.88
2022-10-08T13:45:54.630Z,1.20
2022-10-08T13:50:57.528Z,1.20
2022-10-08T13:56:00.137Z,1.35
2022-10-08T14:01:04.192Z,0.95
2022-10-08T14:06:07.297Z,1.25
2022-10-08T14:11:10.834Z,1.33
2022-10-08T14:16:14.814Z,1.20
2022-10-08T14:21:17.753Z,1.13
2022-10-08T14:26:20.458Z,1.00
2022-10-08T14:31:24.432Z,1.05
2022-10-08T14:36:31.412Z,1.15
2022-10-08T14:41:34.660Z,1.35
2022-10-08T14:46:38.612Z,0.93
2022-10-08T14:51:41.621Z,1.52
2022-10-08T14:56:44.219Z,1.00
2022-10-08T15:01:48.286Z,1.10
2022-10-08T15:06:50.979Z,1.30
2022-10-08T15:11:53.592Z,1.15
2022-10-08T15:16:57.655Z,1.02
2022-10-08T15:22:00.284Z,1.00
2022-10-08T15:27:02.861Z,1.35
2022-10-08T15:32:06.848Z,1.40
2022-10-08T15:37:09.545Z,1.30
2022-10-08T15:42:12.900Z,1.20
2022-10-08T15:47:16.864Z,1.23
2022-10-08T15:52:22.086Z,1.50
2022-10-08T15:57:24.677Z,1.20
2022-10-08T16:02:28.664Z,1.45
2022-10-08T16:07:31.267Z,1.20
2022-10-08T16:12:33.849Z,1.08
2022-10-08T16:17:37.915Z,1.45
2022-10-08T16:22:40.614Z,1.30
2022-10-08T16:27:43.233Z,1.33
2022-10-08T16:32:47.429Z,1.35
2022-10-08T16:37:52.131Z,1.50
2022-10-08T16:42:55.027Z,1.10
2022-10-08T16:48:00.344Z,1.10
2022-10-08T16:53:03.136Z,0.80
2022-10-08T16:58:06.837Z,1.08
2022-10-08T17:03:10.797Z,1.00
2022-10-08T17:08:13.421Z,1.30
2022-10-08T17:13:16.095Z,1.05
2022-10-08T17:18:20.093Z,1.65
2022-10-08T17:23:22.906Z,1.23
2022-10-08T17:28:28.232Z,2.15
2022-10-08T17:33:35.657Z,1.80
2022-10-08T17:38:40.141Z,2.03
2022-10-08T17:43:43.208Z,2.65
2022-10-08T17:48:47.545Z,2.80
2022-10-08T17:53:53.952Z,5.22
2022-10-08T17:58:56.827Z,4.53
2022-10-08T18:04:02.222Z,1.67
2022-10-08T18:09:06.487Z,1.25
2022-10-08T18:14:09.134Z,1.38
2022-10-08T18:19:13.149Z,1.40
2022-10-08T18:24:16.132Z,1.65
2022-10-08T18:29:18.910Z,1.80
2022-10-08T18:34:23.564Z,1.70
2022-10-08T18:39:28.671Z,1.80
2022-10-08T18:44:31.638Z,1.70
2022-10-08T18:49:36.040Z,1.92
2022-10-08T18:54:38.865Z,2.05
2022-10-08T18:59:41.657Z,3.78
2022-10-08T19:04:45.922Z,2.30
2022-10-08T19:09:48.504Z,1.65
2022-10-08T19:14:51.174Z,1.90
2022-10-08T19:19:55.225Z,1.88
2022-10-08T19:24:57.974Z,2.00
2022-10-08T19:30:00.645Z,2.00
2022-10-08T19:35:05.353Z,1.95
2022-10-08T19:40:08.345Z,1.73
2022-10-08T19:45:12.466Z,1.65
2022-10-08T19:50:16.481Z,1.85
2022-10-08T19:55:19.133Z,2.10
2022-10-08T20:00:21.826Z,1.70
2022-10-08T20:05:25.757Z,1.65
2022-10-08T20:10:28.335Z,1.85
2022-10-08T20:15:30.902Z,2.30
2022-10-08T20:20:34.895Z,1.88
2022-10-08T20:25:37.661Z,1.42
2022-10-08T20:30:41.347Z,2.00
2022-10-08T20:35:45.321Z,2.00
2022-10-08T20:40:47.977Z,2.20
2022-10-08T20:45:50.704Z,2.15
2022-10-08T20:50:54.742Z,2.65
2022-10-08T20:55:57.496Z,2.35
2022-10-08T21:01:05.078Z,1.70
2022-10-08T21:06:09.721Z,2.60
2022-10-08T21:11:14.267Z,2.25
2022-10-08T21:16:19.461Z,2.17
2022-10-08T21:21:23.901Z,2.13
2022-10-08T21:26:28.988Z,2.78
2022-10-08T21:31:32.958Z,2.05
2022-10-08T21:36:39.498Z,2.35
2022-10-08T21:41:42.312Z,2.72
2022-10-08T21:46:45.252Z,2.60
2022-10-08T21:51:49.489Z,2.15
2022-10-08T21:56:52.134Z,1.73
2022-10-08T22:01:54.851Z,2.05
2022-10-08T22:06:59.536Z,1.65
2022-10-08T22:12:03.129Z,1.83
2022-10-08T22:17:05.777Z,1.65
2022-10-08T22:22:09.932Z,1.73
2022-10-08T22:27:12.633Z,1.73
2022-10-08T22:32:15.272Z,1.92
2022-10-08T22:37:19.287Z,1.92
2022-10-08T22:42:22.027Z,1.85
2022-10-08T22:47:25.070Z,2.42
2022-10-08T22:52:29.220Z,2.08
2022-10-08T22:57:31.846Z,2.45
2022-10-08T23:02:34.845Z,2.83
2022-10-08T23:07:38.982Z,2.05
2022-10-08T23:12:41.636Z,2.42
2022-10-08T23:17:44.307Z,2.50
2022-10-08T23:22:48.624Z,2.85
2022-10-08T23:27:51.699Z,3.15
2022-10-08T23:32:54.291Z,3.60
2022-10-08T23:37:58.301Z,3.03
2022-10-08T23:43:00.955Z,3.60
2022-10-08T23:48:03.527Z,2.80
2022-10-08T23:53:07.463Z,3.03
2022-10-08T23:58:10.184Z,3.70
